Lee, Florida
Current Conditions -  °F | °C
As of 3:55 AM on Wednesday 26 Nov 2014 (Local Time) from K24J Reporting Station
Overcast Overcast  
Wind Chill: 44°   Ceiling: 900
Heat Index: 48°   Visibility: 2.5mi
Dew Point: 48°   Wind: 9mph
Humidity: 100%   Direction: 320°NW
Pressure: 30.02"   Gusts: NA
Location:  30.42°N, 83.3°W
Report Text: K24J 260855Z AUTO 32008KT 2 1/2SM BKN009 OVC016 09/09 A3002 RMK AO1
Loading
Personal Weather Stations






























Interactive Weather Map New forecast layout! Learn more

10-Day Weather Forecast

Advertisements
Track Severe Weather on mobile